GMTN/TTU METAR and TAF weather

Enter ICAO airport designator
Station Type Date Time Source
GMTN METAR 2018/07/17 00:00 UTC NOAA

GMTN 170000Z 19008KT CAVOK 21/13 Q1015 NOSIG


Station Type Date Time Source
GMTN Decoded METAR 2018/07/17 00:00 UTC NOAA

Tetuan / Sania Ramel, Morocco (GMTN) 35-35N 005-20W 10M
Jul 16, 2018 - 08:00 PM EDT / 2018.07.17 0000 UTC
Wind: from the S (190 degrees) at 9 MPH (8 KT):0
Visibility: greater than 7 mile(s):0
Temperature: 69 F (21 C)
Dew Point: 55 F (13 C)
Relative Humidity: 60%
Pressure (altimeter): 29.97 in. Hg (1015 hPa)
ob: GMTN 170000Z 19008KT CAVOK 21/13 Q1015 NOSIG
cycle: 0

Station Type Date Time Source
GMTN TAF UTC NOAA

Error!


Example: see airport list